sensor_id;sensor_type;location;lat;lon;timestamp;P1;durP1;ratioP1;P2;durP2;ratioP2
2756;SDS011;1386;50.862;6.494;2023-04-16T06:59:06;10.87;;;9.47;;
2756;SDS011;1386;50.862;6.494;2023-04-16T07:01:33;14.37;;;9.17;;
2756;SDS011;1386;50.862;6.494;2023-04-16T07:04:00;11.73;;;9.70;;
2756;SDS011;1386;50.862;6.494;2023-04-16T07:06:27;14.00;;;9.27;;
2756;SDS011;1386;50.862;6.494;2023-04-16T07:08:54;15.43;;;10.70;;
2756;SDS011;1386;50.862;6.494;2023-04-16T07:11:21;16.33;;;10.83;;
2756;SDS011;1386;50.862;6.494;2023-04-16T07:13:47;15.30;;;9.90;;
2756;SDS011;1386;50.862;6.494;2023-04-16T07:16:19;16.53;;;11.57;;
2756;SDS011;1386;50.862;6.494;2023-04-16T07:18:46;15.87;;;10.20;;
2756;SDS011;1386;50.862;6.494;2023-04-16T07:21:12;12.20;;;10.03;;
2756;SDS011;1386;50.862;6.494;2023-04-16T07:23:40;14.47;;;10.50;;
2756;SDS011;1386;50.862;6.494;2023-04-16T07:26:07;16.60;;;12.13;;
2756;SDS011;1386;50.862;6.494;2023-04-16T07:28:36;14.30;;;10.90;;
2756;SDS011;1386;50.862;6.494;2023-04-16T07:31:03;17.67;;;11.83;;
2756;SDS011;1386;50.862;6.494;2023-04-16T07:33:31;17.00;;;12.20;;
2756;SDS011;1386;50.862;6.494;2023-04-16T07:35:58;16.60;;;11.10;;
2756;SDS011;1386;50.862;6.494;2023-04-16T07:38:25;22.90;;;13.33;;
2756;SDS011;1386;50.862;6.494;2023-04-16T07:40:51;20.50;;;12.83;;
2756;SDS011;1386;50.862;6.494;2023-04-16T07:43:18;15.97;;;11.53;;
2756;SDS011;1386;50.862;6.494;2023-04-16T07:45:45;20.10;;;12.63;;
2756;SDS011;1386;50.862;6.494;2023-04-16T07:48:12;18.57;;;12.47;;
2756;SDS011;1386;50.862;6.494;2023-04-16T07:50:42;17.10;;;12.93;;
2756;SDS011;1386;50.862;6.494;2023-04-16T07:53:09;19.90;;;12.47;;
2756;SDS011;1386;50.862;6.494;2023-04-16T07:55:36;17.80;;;11.97;;
2756;SDS011;1386;50.862;6.494;2023-04-16T07:58:03;18.90;;;12.17;;
2756;SDS011;1386;50.862;6.494;2023-04-16T08:00:31;17.20;;;12.43;;
2756;SDS011;1386;50.862;6.494;2023-04-16T08:02:58;19.70;;;12.33;;
2756;SDS011;1386;50.862;6.494;2023-04-16T08:05:25;23.07;;;13.87;;
2756;SDS011;1386;50.862;6.494;2023-04-16T08:07:53;19.37;;;13.30;;
2756;SDS011;1386;50.862;6.494;2023-04-16T08:10:23;21.50;;;13.70;;
2756;SDS011;1386;50.862;6.494;2023-04-16T08:12:50;22.53;;;13.47;;
2756;SDS011;1386;50.862;6.494;2023-04-16T08:15:17;22.10;;;13.83;;
2756;SDS011;1386;50.862;6.494;2023-04-16T08:17:45;23.70;;;15.17;;
2756;SDS011;1386;50.862;6.494;2023-04-16T08:20:12;25.33;;;14.80;;
2756;SDS011;1386;50.862;6.494;2023-04-16T08:22:39;19.97;;;14.80;;
2756;SDS011;1386;50.862;6.494;2023-04-16T08:25:08;20.10;;;14.13;;
2756;SDS011;1386;50.862;6.494;2023-04-16T08:27:35;19.73;;;12.67;;
2756;SDS011;1386;50.862;6.494;2023-04-16T08:30:03;22.20;;;14.87;;
2756;SDS011;1386;50.862;6.494;2023-04-16T08:32:30;22.27;;;14.60;;
2756;SDS011;1386;50.862;6.494;2023-04-16T08:34:57;19.40;;;13.63;;
2756;SDS011;1386;50.862;6.494;2023-04-16T08:37:24;22.03;;;14.10;;
2756;SDS011;1386;50.862;6.494;2023-04-16T08:39:51;19.43;;;13.90;;
2756;SDS011;1386;50.862;6.494;2023-04-16T08:42:27;24.37;;;14.80;;
2756;SDS011;1386;50.862;6.494;2023-04-16T08:44:58;23.00;;;14.60;;
2756;SDS011;1386;50.862;6.494;2023-04-16T08:47:32;27.17;;;14.33;;
2756;SDS011;1386;50.862;6.494;2023-04-16T08:50:01;22.23;;;14.27;;
2756;SDS011;1386;50.862;6.494;2023-04-16T08:52:29;19.80;;;14.43;;
2756;SDS011;1386;50.862;6.494;2023-04-16T08:55:00;25.67;;;15.33;;
2756;SDS011;1386;50.862;6.494;2023-04-16T08:57:36;23.27;;;15.03;;
2756;SDS011;1386;50.862;6.494;2023-04-16T09:00:06;22.17;;;14.90;;
2756;SDS011;1386;50.862;6.494;2023-04-16T09:02:34;21.47;;;14.87;;
2756;SDS011;1386;50.862;6.494;2023-04-16T09:05:02;23.43;;;15.17;;
2756;SDS011;1386;50.862;6.494;2023-04-16T09:07:30;22.73;;;15.27;;
2756;SDS011;1386;50.862;6.494;2023-04-16T09:09:58;22.33;;;15.60;;
2756;SDS011;1386;50.862;6.494;2023-04-16T09:12:26;25.47;;;14.27;;
2756;SDS011;1386;50.862;6.494;2023-04-16T09:14:54;21.70;;;14.00;;
2756;SDS011;1386;50.862;6.494;2023-04-16T09:17:26;21.77;;;15.30;;
2756;SDS011;1386;50.862;6.494;2023-04-16T09:19:54;23.83;;;14.37;;
2756;SDS011;1386;50.862;6.494;2023-04-16T09:22:20;22.77;;;15.03;;
2756;SDS011;1386;50.862;6.494;2023-04-16T09:24:47;21.60;;;13.00;;
2756;SDS011;1386;50.862;6.494;2023-04-16T09:27:14;21.10;;;14.27;;
2756;SDS011;1386;50.862;6.494;2023-04-16T09:29:42;22.00;;;14.20;;
2756;SDS011;1386;50.862;6.494;2023-04-16T09:32:10;24.87;;;14.77;;
2756;SDS011;1386;50.862;6.494;2023-04-16T09:34:52;23.60;;;14.60;;
2756;SDS011;1386;50.862;6.494;2023-04-16T09:37:20;21.43;;;14.67;;
2756;SDS011;1386;50.862;6.494;2023-04-16T09:39:51;25.83;;;14.30;;
2756;SDS011;1386;50.862;6.494;2023-04-16T09:42:20;18.03;;;13.50;;
2756;SDS011;1386;50.862;6.494;2023-04-16T09:44:48;22.60;;;14.00;;
2756;SDS011;1386;50.862;6.494;2023-04-16T09:47:17;25.50;;;15.97;;
2756;SDS011;1386;50.862;6.494;2023-04-16T09:49:44;23.50;;;15.57;;
2756;SDS011;1386;50.862;6.494;2023-04-16T09:52:12;30.13;;;15.20;;
2756;SDS011;1386;50.862;6.494;2023-04-16T09:54:44;25.40;;;15.27;;
2756;SDS011;1386;50.862;6.494;2023-04-16T09:57:12;24.00;;;15.43;;
2756;SDS011;1386;50.862;6.494;2023-04-16T09:59:40;24.63;;;13.03;;
2756;SDS011;1386;50.862;6.494;2023-04-16T10:02:26;22.10;;;13.63;;
2756;SDS011;1386;50.862;6.494;2023-04-16T10:04:59;28.67;;;16.23;;
2756;SDS011;1386;50.862;6.494;2023-04-16T10:07:27;30.60;;;17.63;;
2756;SDS011;1386;50.862;6.494;2023-04-16T10:09:55;31.63;;;18.90;;
2756;SDS011;1386;50.862;6.494;2023-04-16T10:12:23;29.20;;;19.60;;
2756;SDS011;1386;50.862;6.494;2023-04-16T10:14:51;32.87;;;20.77;;
2756;SDS011;1386;50.862;6.494;2023-04-16T10:17:18;33.87;;;20.93;;
2756;SDS011;1386;50.862;6.494;2023-04-16T10:19:47;30.63;;;20.30;;
2756;SDS011;1386;50.862;6.494;2023-04-16T10:22:15;35.43;;;23.43;;
2756;SDS011;1386;50.862;6.494;2023-04-16T10:24:42;39.50;;;23.07;;
2756;SDS011;1386;50.862;6.494;2023-04-16T10:27:12;35.90;;;21.63;;
2756;SDS011;1386;50.862;6.494;2023-04-16T10:29:39;39.43;;;21.93;;
2756;SDS011;1386;50.862;6.494;2023-04-16T10:32:06;31.97;;;22.20;;
2756;SDS011;1386;50.862;6.494;2023-04-16T10:34:34;29.63;;;20.13;;
2756;SDS011;1386;50.862;6.494;2023-04-16T10:37:02;36.60;;;19.60;;
2756;SDS011;1386;50.862;6.494;2023-04-16T10:39:29;30.13;;;20.17;;
2756;SDS011;1386;50.862;6.494;2023-04-16T10:42:07;28.97;;;19.30;;
2756;SDS011;1386;50.862;6.494;2023-04-16T10:44:35;28.90;;;19.33;;
2756;SDS011;1386;50.862;6.494;2023-04-16T10:47:08;29.90;;;18.50;;
2756;SDS011;1386;50.862;6.494;2023-04-16T10:49:36;42.13;;;21.67;;
2756;SDS011;1386;50.862;6.494;2023-04-16T10:52:09;31.57;;;20.13;;
2756;SDS011;1386;50.862;6.494;2023-04-16T10:54:37;32.00;;;20.17;;
2756;SDS011;1386;50.862;6.494;2023-04-16T10:57:06;32.73;;;20.10;;
2756;SDS011;1386;50.862;6.494;2023-04-16T10:59:34;38.57;;;20.43;;
2756;SDS011;1386;50.862;6.494;2023-04-16T11:02:05;38.87;;;22.17;;
2756;SDS011;1386;50.862;6.494;2023-04-16T11:04:33;37.80;;;22.30;;
2756;SDS011;1386;50.862;6.494;2023-04-16T11:07:13;41.20;;;22.10;;
2756;SDS011;1386;50.862;6.494;2023-04-16T11:09:52;34.53;;;20.97;;
2756;SDS011;1386;50.862;6.494;2023-04-16T11:12:21;39.90;;;21.47;;
2756;SDS011;1386;50.862;6.494;2023-04-16T11:14:51;38.20;;;21.00;;
2756;SDS011;1386;50.862;6.494;2023-04-16T11:17:19;30.53;;;20.00;;
2756;SDS011;1386;50.862;6.494;2023-04-16T11:19:47;22.30;;;17.53;;
2756;SDS011;1386;50.862;6.494;2023-04-16T11:22:16;29.37;;;17.47;;
2756;SDS011;1386;50.862;6.494;2023-04-16T11:24:43;27.77;;;19.20;;
2756;SDS011;1386;50.862;6.494;2023-04-16T11:27:12;32.17;;;20.20;;
2756;SDS011;1386;50.862;6.494;2023-04-16T11:29:40;27.93;;;19.80;;
2756;SDS011;1386;50.862;6.494;2023-04-16T11:32:07;30.87;;;20.73;;
2756;SDS011;1386;50.862;6.494;2023-04-16T11:34:41;33.93;;;20.87;;
2756;SDS011;1386;50.862;6.494;2023-04-16T11:37:09;32.40;;;20.63;;
2756;SDS011;1386;50.862;6.494;2023-04-16T11:39:47;31.63;;;19.70;;
2756;SDS011;1386;50.862;6.494;2023-04-16T11:42:18;30.30;;;19.80;;
2756;SDS011;1386;50.862;6.494;2023-04-16T11:44:50;28.50;;;18.70;;
2756;SDS011;1386;50.862;6.494;2023-04-16T11:47:18;29.60;;;20.03;;
2756;SDS011;1386;50.862;6.494;2023-04-16T11:49:45;29.27;;;19.03;;
2756;SDS011;1386;50.862;6.494;2023-04-16T11:52:12;26.03;;;18.57;;
2756;SDS011;1386;50.862;6.494;2023-04-16T11:54:40;29.80;;;20.60;;
2756;SDS011;1386;50.862;6.494;2023-04-16T11:57:08;29.20;;;20.00;;
2756;SDS011;1386;50.862;6.494;2023-04-16T11:59:35;27.70;;;19.03;;
2756;SDS011;1386;50.862;6.494;2023-04-16T12:02:02;26.57;;;19.20;;
2756;SDS011;1386;50.862;6.494;2023-04-16T12:04:29;29.53;;;20.20;;
2756;SDS011;1386;50.862;6.494;2023-04-16T12:07:05;25.33;;;18.50;;
2756;SDS011;1386;50.862;6.494;2023-04-16T12:09:33;28.63;;;18.03;;
2756;SDS011;1386;50.862;6.494;2023-04-16T13:40:10;22.00;;;15.57;;
2756;SDS011;1386;50.862;6.494;2023-04-16T13:43:14;20.47;;;15.00;;
2756;SDS011;1386;50.862;6.494;2023-04-16T13:45:58;22.37;;;16.00;;
2756;SDS011;1386;50.862;6.494;2023-04-16T14:09:10;19.90;;;13.43;;
2756;SDS011;1386;50.862;6.494;2023-04-16T14:11:37;21.57;;;13.77;;
2756;SDS011;1386;50.862;6.494;2023-04-16T14:14:06;22.10;;;16.23;;
2756;SDS011;1386;50.862;6.494;2023-04-16T14:16:33;25.47;;;17.20;;
2756;SDS011;1386;50.862;6.494;2023-04-16T14:19:00;21.63;;;15.93;;
2756;SDS011;1386;50.862;6.494;2023-04-16T14:21:27;25.27;;;18.17;;
2756;SDS011;1386;50.862;6.494;2023-04-16T14:23:56;25.00;;;18.43;;
2756;SDS011;1386;50.862;6.494;2023-04-16T14:26:25;25.40;;;17.57;;
2756;SDS011;1386;50.862;6.494;2023-04-16T14:28:52;24.20;;;17.20;;
2756;SDS011;1386;50.862;6.494;2023-04-16T14:31:19;24.63;;;17.33;;
2756;SDS011;1386;50.862;6.494;2023-04-16T14:33:46;23.80;;;17.50;;
2756;SDS011;1386;50.862;6.494;2023-04-16T14:36:13;24.80;;;17.37;;
2756;SDS011;1386;50.862;6.494;2023-04-16T14:38:40;28.40;;;19.27;;
2756;SDS011;1386;50.862;6.494;2023-04-16T14:41:09;24.30;;;18.03;;
2756;SDS011;1386;50.862;6.494;2023-04-16T14:43:36;25.57;;;18.17;;
2756;SDS011;1386;50.862;6.494;2023-04-16T14:46:04;23.90;;;18.43;;
2756;SDS011;1386;50.862;6.494;2023-04-16T14:48:31;29.17;;;18.00;;
2756;SDS011;1386;50.862;6.494;2023-04-16T14:50:58;29.40;;;18.67;;
2756;SDS011;1386;50.862;6.494;2023-04-16T14:53:25;21.73;;;17.63;;
2756;SDS011;1386;50.862;6.494;2023-04-16T14:55:53;23.53;;;18.77;;
2756;SDS011;1386;50.862;6.494;2023-04-16T14:58:24;29.37;;;18.80;;
2756;SDS011;1386;50.862;6.494;2023-04-16T15:00:51;24.53;;;17.80;;
2756;SDS011;1386;50.862;6.494;2023-04-16T15:03:18;27.60;;;18.60;;
2756;SDS011;1386;50.862;6.494;2023-04-16T15:05:46;28.33;;;18.90;;
2756;SDS011;1386;50.862;6.494;2023-04-16T15:08:19;31.03;;;16.50;;
2756;SDS011;1386;50.862;6.494;2023-04-16T15:10:46;27.37;;;18.00;;
2756;SDS011;1386;50.862;6.494;2023-04-16T15:13:13;30.87;;;19.20;;
2756;SDS011;1386;50.862;6.494;2023-04-16T15:15:41;23.90;;;18.77;;
2756;SDS011;1386;50.862;6.494;2023-04-16T15:18:08;25.37;;;17.87;;
2756;SDS011;1386;50.862;6.494;2023-04-16T15:20:36;30.80;;;18.37;;
2756;SDS011;1386;50.862;6.494;2023-04-16T15:23:02;26.57;;;19.47;;
2756;SDS011;1386;50.862;6.494;2023-04-16T15:25:32;24.50;;;16.50;;
2756;SDS011;1386;50.862;6.494;2023-04-16T15:28:07;24.87;;;16.83;;
2756;SDS011;1386;50.862;6.494;2023-04-16T15:34:27;29.60;;;18.30;;
2756;SDS011;1386;50.862;6.494;2023-04-16T15:37:26;37.13;;;20.37;;
2756;SDS011;1386;50.862;6.494;2023-04-16T15:40:41;25.90;;;17.80;;
2756;SDS011;1386;50.862;6.494;2023-04-16T15:43:47;28.83;;;19.30;;
2756;SDS011;1386;50.862;6.494;2023-04-16T15:50:20;26.67;;;19.80;;
2756;SDS011;1386;50.862;6.494;2023-04-16T15:53:00;28.33;;;18.30;;
2756;SDS011;1386;50.862;6.494;2023-04-16T15:55:28;31.60;;;19.90;;
2756;SDS011;1386;50.862;6.494;2023-04-16T15:57:55;28.30;;;20.10;;
2756;SDS011;1386;50.862;6.494;2023-04-16T16:00:22;28.97;;;19.37;;
2756;SDS011;1386;50.862;6.494;2023-04-16T16:02:49;29.00;;;19.63;;
2756;SDS011;1386;50.862;6.494;2023-04-16T16:05:16;30.37;;;20.00;;
2756;SDS011;1386;50.862;6.494;2023-04-16T16:07:48;26.77;;;19.57;;
2756;SDS011;1386;50.862;6.494;2023-04-16T16:10:15;30.50;;;20.87;;
2756;SDS011;1386;50.862;6.494;2023-04-16T16:12:41;32.23;;;20.77;;
2756;SDS011;1386;50.862;6.494;2023-04-16T16:15:08;30.13;;;21.93;;
2756;SDS011;1386;50.862;6.494;2023-04-16T16:17:36;30.60;;;20.47;;
2756;SDS011;1386;50.862;6.494;2023-04-16T16:20:05;30.70;;;21.23;;
2756;SDS011;1386;50.862;6.494;2023-04-16T16:22:35;29.50;;;21.50;;
2756;SDS011;1386;50.862;6.494;2023-04-16T16:25:03;31.10;;;20.20;;
2756;SDS011;1386;50.862;6.494;2023-04-16T16:27:38;28.10;;;21.37;;
2756;SDS011;1386;50.862;6.494;2023-04-16T16:30:06;32.83;;;20.37;;
2756;SDS011;1386;50.862;6.494;2023-04-16T16:36:13;31.07;;;21.20;;
2756;SDS011;1386;50.862;6.494;2023-04-16T16:39:30;38.07;;;21.90;;
2756;SDS011;1386;50.862;6.494;2023-04-16T16:42:18;37.40;;;21.37;;
2756;SDS011;1386;50.862;6.494;2023-04-16T18:33:57;23.90;;;18.57;;
